Time;durP1;ratioP1;P1;durP2;ratioP2;P2;SDS_P1;SDS_P2;PMS_P1;PMS_P2;Temp;Humidity;BMP_temperature;BMP_pressure;BME280_temperature;BME280_humidity;BME280_pressure;Samples;Min_cycle;Max_cycle;Signal;HPM_P1;HPM_P2
2022/08/27 00:02:07;;;;;;;6.00;3.15;;;19.00;99.90;;;;;;5022422;28;20056;-80
2022/08/27 00:04:34;;;;;;;2.97;2.45;;;19.00;99.90;;;;;;5023889;28;20053;-79
2022/08/27 00:06:59;;;;;;;2.90;2.60;;;19.00;99.90;;;;;;5023205;28;20476;-80
2022/08/27 00:09:25;;;;;;;3.60;2.55;;;19.00;99.90;;;;;;5032191;28;20295;-80
2022/08/27 00:11:51;;;;;;;2.92;2.55;;;19.10;99.90;;;;;;5029574;28;20033;-80
2022/08/27 00:14:17;;;;;;;4.20;2.83;;;19.10;99.90;;;;;;5022775;28;20036;-80
2022/08/27 00:16:42;;;;;;;4.70;3.40;;;19.20;99.90;;;;;;5022798;28;20040;-80
2022/08/27 00:19:08;;;;;;;4.40;3.25;;;19.10;99.90;;;;;;5027029;28;20057;-80
2022/08/27 00:21:33;;;;;;;3.05;2.58;;;19.20;99.90;;;;;;5024860;28;20480;-80
2022/08/27 00:23:59;;;;;;;3.90;2.80;;;19.20;99.90;;;;;;5025428;28;20052;-80
2022/08/27 00:26:25;;;;;;;5.28;3.00;;;19.20;99.90;;;;;;5024190;28;20026;-80
2022/08/27 00:28:51;;;;;;;7.75;3.63;;;19.20;99.90;;;;;;5023854;28;20427;-80
2022/08/27 00:31:17;;;;;;;8.05;2.85;;;19.20;99.90;;;;;;5027416;28;20041;-80
2022/08/27 00:33:43;;;;;;;5.07;2.85;;;19.10;99.90;;;;;;5030197;28;20034;-80
2022/08/27 00:36:10;;;;;;;4.10;2.80;;;19.10;99.90;;;;;;5026776;28;20057;-80
2022/08/27 00:38:37;;;;;;;4.55;2.95;;;19.10;99.90;;;;;;5020292;28;20033;-80
2022/08/27 00:41:04;;;;;;;4.93;2.67;;;19.20;99.90;;;;;;5025236;28;20112;-80
2022/08/27 00:43:44;;;;;;;3.50;2.50;;;19.10;99.90;;;;;;5025889;28;20038;-80
2022/08/27 00:46:32;;;;;;;3.67;2.80;;;19.20;99.90;;;;;;5026443;28;20033;-80
2022/08/27 00:49:18;;;;;;;4.13;3.00;;;19.20;99.90;;;;;;5033185;28;20071;-80
2022/08/27 00:51:52;;;;;;;4.15;2.85;;;19.10;99.90;;;;;;5026926;28;20506;-80
2022/08/27 00:54:19;;;;;;;3.22;2.47;;;19.10;99.90;;;;;;5032950;28;20030;-80
2022/08/27 00:56:45;;;;;;;3.88;2.60;;;19.20;99.90;;;;;;5022656;28;20133;-80
2022/08/27 00:59:13;;;;;;;5.10;3.08;;;19.10;99.90;;;;;;5029517;28;20029;-80
2022/08/27 01:02:17;;;;;;;3.42;2.55;;;19.20;99.90;;;;;;5028703;28;20031;-80
2022/08/27 01:04:26;;;;;;;6.03;3.05;;;19.20;99.90;;;;;;5027636;28;20732;-80
2022/08/27 01:06:55;;;;;;;5.88;3.00;;;19.30;99.90;;;;;;5026585;28;20079;-80
2022/08/27 01:09:21;;;;;;;4.70;2.92;;;19.40;99.90;;;;;;5035910;28;20029;-80
2022/08/27 01:11:48;;;;;;;4.32;2.72;;;19.50;99.90;;;;;;5034423;28;20028;-80
2022/08/27 01:14:14;;;;;;;4.30;2.60;;;19.40;99.90;;;;;;5029919;28;20675;-80
2022/08/27 01:16:44;;;;;;;5.63;2.83;;;19.50;99.90;;;;;;5028353;28;20037;-80
2022/08/27 01:19:21;;;;;;;5.43;3.20;;;19.50;99.90;;;;;;5021760;28;20033;-80
2022/08/27 01:22:01;;;;;;;5.80;3.30;;;19.60;99.90;;;;;;5027624;28;20123;-80
2022/08/27 01:24:32;;;;;;;5.90;3.10;;;19.60;99.90;;;;;;5027578;28;20121;-80
2022/08/27 01:27:00;;;;;;;4.03;2.65;;;19.70;99.90;;;;;;5032348;28;20040;-80
2022/08/27 01:29:25;;;;;;;5.88;3.22;;;19.60;99.90;;;;;;5025567;28;20767;-80
2022/08/27 01:31:51;;;;;;;12.18;3.80;;;19.70;99.90;;;;;;5027523;28;20033;-80
2022/08/27 01:34:17;;;;;;;6.95;3.65;;;19.70;99.90;;;;;;5028591;28;20029;-80
2022/08/27 01:36:42;;;;;;;4.13;3.10;;;19.70;99.90;;;;;;5028640;28;20080;-80
2022/08/27 01:39:08;;;;;;;3.50;2.53;;;19.70;99.90;;;;;;5028299;28;20071;-80
2022/08/27 01:41:33;;;;;;;6.85;3.13;;;19.70;99.90;;;;;;5026324;28;20028;-80
2022/08/27 01:43:59;;;;;;;4.47;3.22;;;19.70;99.90;;;;;;5027570;28;20037;-80
2022/08/27 01:46:27;;;;;;;5.65;3.35;;;19.70;99.90;;;;;;5028880;28;20464;-80
2022/08/27 01:48:53;;;;;;;4.85;3.35;;;19.70;99.90;;;;;;5027122;28;20041;-80
2022/08/27 01:51:19;;;;;;;5.10;3.28;;;19.70;99.90;;;;;;5024010;28;20033;-80
2022/08/27 01:53:45;;;;;;;5.45;3.45;;;19.70;99.90;;;;;;5030481;28;20383;-80
2022/08/27 01:56:10;;;;;;;6.45;3.83;;;19.70;99.90;;;;;;5029117;28;20029;-80
2022/08/27 01:58:37;;;;;;;6.55;3.50;;;19.80;99.90;;;;;;5032753;28;20124;-80
2022/08/27 02:01:08;;;;;;;5.43;3.25;;;19.80;99.90;;;;;;5027374;28;20033;-80
2022/08/27 02:03:36;;;;;;;4.80;3.85;;;19.80;99.90;;;;;;5027887;28;20025;-81
2022/08/27 02:06:06;;;;;;;3.80;3.08;;;19.80;99.90;;;;;;5027940;28;20100;-80
2022/08/27 02:08:32;;;;;;;8.23;3.03;;;19.80;99.90;;;;;;5026508;28;20041;-80
2022/08/27 02:10:58;;;;;;;5.53;3.72;;;19.80;99.90;;;;;;5029460;28;20396;-80
2022/08/27 02:13:23;;;;;;;7.68;3.30;;;19.80;99.90;;;;;;5028125;28;20091;-80
2022/08/27 02:15:49;;;;;;;7.22;3.10;;;19.80;99.90;;;;;;5028168;28;20017;-80
2022/08/27 02:18:15;;;;;;;7.03;3.83;;;19.80;99.90;;;;;;5028928;28;20037;-79
2022/08/27 02:20:45;;;;;;;5.25;3.60;;;19.80;99.90;;;;;;5025728;28;20030;-80
2022/08/27 02:23:11;;;;;;;6.43;3.90;;;19.90;99.90;;;;;;5028600;28;20033;-81
2022/08/27 02:25:37;;;;;;;4.18;3.40;;;19.90;99.90;;;;;;5028674;28;20080;-80
2022/08/27 02:28:04;;;;;;;8.20;4.18;;;19.90;99.90;;;;;;5026890;28;20039;-80
2022/08/27 02:30:31;;;;;;;11.38;3.53;;;19.90;99.90;;;;;;5027243;28;20716;-80
2022/08/27 02:33:01;;;;;;;6.35;3.97;;;19.90;99.90;;;;;;5025132;28;20403;-80
2022/08/27 02:35:28;;;;;;;7.13;3.55;;;19.90;99.90;;;;;;5025153;28;20045;-81
2022/08/27 02:37:53;;;;;;;6.20;3.53;;;19.90;99.90;;;;;;5028178;28;20044;-81
2022/08/27 02:40:21;;;;;;;4.40;3.60;;;19.90;99.90;;;;;;5029749;28;20025;-81
2022/08/27 02:42:48;;;;;;;6.00;3.83;;;19.90;99.90;;;;;;5031681;28;20063;-81
2022/08/27 02:45:14;;;;;;;5.78;3.33;;;19.90;99.90;;;;;;5022617;28;20506;-80
2022/08/27 02:47:40;;;;;;;8.20;4.10;;;19.90;99.90;;;;;;5026296;28;20037;-82
2022/08/27 02:50:07;;;;;;;6.82;4.25;;;19.90;99.90;;;;;;5028281;28;20404;-81
2022/08/27 02:52:32;;;;;;;10.55;3.70;;;19.90;99.90;;;;;;5027624;28;20194;-80
2022/08/27 02:54:58;;;;;;;8.15;4.25;;;19.90;99.90;;;;;;5024238;28;20034;-81
2022/08/27 02:57:25;;;;;;;6.28;3.40;;;19.80;99.90;;;;;;5026372;28;20251;-79
2022/08/27 02:59:51;;;;;;;5.30;3.40;;;19.90;99.90;;;;;;5027177;28;20091;-80
2022/08/27 03:02:17;;;;;;;5.32;3.47;;;19.80;99.90;;;;;;5031783;28;20430;-81
2022/08/27 03:04:43;;;;;;;8.93;4.00;;;19.80;99.90;;;;;;5028438;28;20053;-82
2022/08/27 03:07:08;;;;;;;8.07;4.70;;;19.90;99.90;;;;;;5025917;28;20033;-80
2022/08/27 03:09:34;;;;;;;8.32;4.57;;;19.90;99.90;;;;;;5035911;28;20048;-80
2022/08/27 03:12:00;;;;;;;8.25;5.28;;;19.80;99.90;;;;;;5025862;28;20033;-81
2022/08/27 03:14:26;;;;;;;4.25;3.67;;;19.90;99.90;;;;;;5026747;28;20044;-82
2022/08/27 03:16:52;;;;;;;6.68;4.68;;;19.90;99.90;;;;;;5026087;28;20041;-81
2022/08/27 03:19:17;;;;;;;6.72;4.57;;;19.80;99.90;;;;;;5026522;28;20033;-84
2022/08/27 03:21:43;;;;;;;9.25;4.63;;;19.80;99.90;;;;;;5025820;28;20534;-83
2022/08/27 03:24:09;;;;;;;8.98;4.72;;;19.80;99.90;;;;;;5029232;28;20080;-81
2022/08/27 03:26:34;;;;;;;11.13;4.97;;;19.80;99.90;;;;;;5025744;28;20026;-81
2022/08/27 03:29:00;;;;;;;13.90;5.07;;;19.70;99.90;;;;;;5025361;28;20021;-83
2022/08/27 03:31:27;;;;;;;13.27;5.60;;;19.70;99.90;;;;;;5024643;28;20056;-83
2022/08/27 03:33:58;;;;;;;13.55;5.95;;;19.70;99.90;;;;;;5024577;28;20123;-84
2022/08/27 03:36:25;;;;;;;9.98;4.82;;;19.70;99.90;;;;;;5025463;28;20072;-84
2022/08/27 03:38:51;;;;;;;8.13;5.30;;;19.70;99.90;;;;;;5020630;28;20035;-82
2022/08/27 03:41:17;;;;;;;8.73;4.65;;;19.60;99.90;;;;;;5022187;28;20022;-82
2022/08/27 03:43:43;;;;;;;9.50;4.88;;;19.60;99.90;;;;;;5019471;28;20029;-83
2022/08/27 03:46:09;;;;;;;10.45;6.00;;;19.50;99.90;;;;;;5024030;28;20088;-80
2022/08/27 03:48:35;;;;;;;6.78;4.32;;;19.50;99.90;;;;;;5023503;28;20057;-84
2022/08/27 03:51:06;;;;;;;7.75;5.35;;;19.50;99.90;;;;;;5026442;28;20503;-82
2022/08/27 03:53:33;;;;;;;7.72;4.68;;;19.50;99.90;;;;;;5023785;28;20112;-83
2022/08/27 03:55:59;;;;;;;9.50;5.63;;;19.50;99.90;;;;;;5031360;28;20025;-82
2022/08/27 03:58:24;;;;;;;10.90;5.55;;;19.50;99.90;;;;;;5025044;28;20037;-82
2022/08/27 04:00:50;;;;;;;9.70;5.15;;;19.50;99.90;;;;;;5031575;28;20096;-83
2022/08/27 04:03:15;;;;;;;6.88;4.13;;;19.50;99.90;;;;;;5020933;28;20117;-83
2022/08/27 04:05:41;;;;;;;12.23;5.45;;;19.50;99.90;;;;;;5025555;28;20025;-81
2022/08/27 04:08:10;;;;;;;6.95;4.60;;;19.50;99.90;;;;;;5026041;28;20026;-83
2022/08/27 04:10:40;;;;;;;8.73;5.05;;;19.50;99.90;;;;;;5026206;28;20044;-84
2022/08/27 04:13:05;;;;;;;8.93;5.05;;;19.50;99.90;;;;;;5032508;28;20383;-80
2022/08/27 04:15:31;;;;;;;6.82;4.53;;;19.60;99.90;;;;;;5026684;28;20036;-83
2022/08/27 04:17:56;;;;;;;7.35;4.80;;;19.50;99.90;;;;;;5024802;28;20037;-81
2022/08/27 04:20:22;;;;;;;9.20;5.43;;;19.50;99.90;;;;;;5021796;28;20037;-82
2022/08/27 04:22:48;;;;;;;10.02;4.88;;;19.50;99.90;;;;;;5030805;28;20057;-84
2022/08/27 04:25:13;;;;;;;7.95;4.45;;;19.60;99.90;;;;;;5031731;28;20352;-81
2022/08/27 04:27:39;;;;;;;7.45;4.38;;;19.50;99.90;;;;;;5031439;28;20026;-82
2022/08/27 04:30:05;;;;;;;7.93;4.70;;;19.50;99.90;;;;;;5034130;28;20076;-82
2022/08/27 04:32:30;;;;;;;6.55;4.18;;;19.50;99.90;;;;;;5032357;28;20151;-82
2022/08/27 04:34:58;;;;;;;6.85;4.28;;;19.50;99.90;;;;;;5034656;28;20045;-82
2022/08/27 04:37:25;;;;;;;9.07;5.13;;;19.60;99.90;;;;;;5029845;28;20034;-83
2022/08/27 04:39:51;;;;;;;8.30;4.78;;;19.60;99.90;;;;;;5032103;28;20024;-82
2022/08/27 04:42:18;;;;;;;9.02;4.85;;;19.60;99.90;;;;;;5031733;28;20196;-82
2022/08/27 04:44:45;;;;;;;7.80;4.30;;;19.60;99.90;;;;;;5033092;28;20277;-83
2022/08/27 04:47:11;;;;;;;8.15;3.83;;;19.60;99.90;;;;;;5033775;28;20032;-82
2022/08/27 04:49:37;;;;;;;9.80;4.90;;;19.60;99.90;;;;;;5032161;28;20391;-85
2022/08/27 04:52:03;;;;;;;10.48;5.60;;;19.60;99.90;;;;;;5032730;28;20033;-83
2022/08/27 04:54:28;;;;;;;7.80;4.80;;;19.60;99.90;;;;;;5033123;28;20041;-83
2022/08/27 04:56:54;;;;;;;7.30;4.45;;;19.60;99.90;;;;;;5032136;28;20246;-83
2022/08/27 04:59:20;;;;;;;7.03;4.32;;;19.60;99.90;;;;;;5032203;28;20060;-82
2022/08/27 05:01:47;;;;;;;7.20;4.60;;;19.50;99.90;;;;;;5033187;28;20095;-82
2022/08/27 05:04:14;;;;;;;10.52;4.43;;;19.60;99.90;;;;;;5033583;28;20068;-82
2022/08/27 05:06:40;;;;;;;12.68;5.05;;;19.60;99.90;;;;;;5031956;28;20032;-83
2022/08/27 05:09:06;;;;;;;8.57;4.88;;;19.60;99.90;;;;;;5029392;28;20033;-82
2022/08/27 05:11:33;;;;;;;7.25;4.18;;;19.60;99.90;;;;;;5031628;28;20078;-82
2022/08/27 05:14:02;;;;;;;10.85;4.25;;;19.60;99.90;;;;;;5030639;28;20052;-82
2022/08/27 05:16:28;;;;;;;7.80;4.07;;;19.70;99.90;;;;;;5032818;28;20033;-83
2022/08/27 05:18:53;;;;;;;6.18;3.55;;;19.70;99.90;;;;;;5033531;28;20069;-83
2022/08/27 05:21:26;;;;;;;6.60;3.92;;;19.70;99.90;;;;;;5032256;28;20101;-83
2022/08/27 05:23:53;;;;;;;9.75;4.88;;;19.70;99.90;;;;;;5029619;28;20661;-83
2022/08/27 05:26:19;;;;;;;7.53;4.13;;;19.70;99.90;;;;;;5031674;28;20037;-82
2022/08/27 05:28:45;;;;;;;7.25;4.30;;;19.70;99.90;;;;;;5032186;28;20498;-83
2022/08/27 05:31:12;;;;;;;7.95;4.70;;;19.50;99.90;;;;;;5034633;28;20033;-82
2022/08/27 05:33:39;;;;;;;10.63;4.75;;;19.60;99.90;;;;;;5026153;28;20037;-83
2022/08/27 05:36:06;;;;;;;9.70;4.15;;;19.80;99.90;;;;;;5029881;28;20538;-82
2022/08/27 05:38:32;;;;;;;7.38;4.47;;;19.80;99.90;;;;;;5029360;28;20259;-85
2022/08/27 05:41:02;;;;;;;7.20;4.03;;;19.80;99.90;;;;;;5027685;28;20044;-83
2022/08/27 05:43:28;;;;;;;13.10;5.20;;;19.90;99.90;;;;;;5027545;28;20035;-82
2022/08/27 05:45:53;;;;;;;7.70;4.47;;;19.90;99.90;;;;;;5028485;28;20419;-85
2022/08/27 05:48:18;;;;;;;7.78;4.55;;;20.00;99.90;;;;;;5033922;28;20033;-84
2022/08/27 05:50:44;;;;;;;7.43;4.32;;;20.00;99.90;;;;;;5041677;28;20696;-85
2022/08/27 05:53:11;;;;;;;13.80;4.00;;;20.00;99.90;;;;;;5031362;28;20091;-81
2022/08/27 05:55:39;;;;;;;6.65;3.78;;;20.00;99.90;;;;;;5028366;28;20115;-84
2022/08/27 05:58:06;;;;;;;7.53;4.38;;;20.00;99.90;;;;;;5028733;28;20048;-82
2022/08/27 06:03:16;;;;;;;9.60;4.22;;;20.00;99.90;;;;;;5044059;28;20032;-83
2022/08/27 06:05:42;;;;;;;9.07;4.68;;;20.00;99.90;;;;;;5029534;28;20188;-84
2022/08/27 06:08:07;;;;;;;7.00;3.78;;;20.10;99.90;;;;;;5031088;28;20033;-84
2022/08/27 06:10:34;;;;;;;7.22;4.07;;;20.20;99.90;;;;;;5028694;28;20022;-84
2022/08/27 06:12:59;;;;;;;4.72;3.30;;;20.20;99.90;;;;;;5026225;28;20421;-84
2022/08/27 06:15:25;;;;;;;5.43;3.80;;;20.10;99.90;;;;;;5024348;28;20048;-84
2022/08/27 06:17:51;;;;;;;7.13;3.38;;;20.20;99.90;;;;;;5027413;28;20026;-87
2022/08/27 06:20:17;;;;;;;5.82;3.13;;;20.20;99.90;;;;;;5026019;28;20060;-84
2022/08/27 06:22:43;;;;;;;7.07;4.05;;;20.30;99.90;;;;;;5026268;28;20105;-85
2022/08/27 06:25:08;;;;;;;5.63;3.35;;;20.40;99.90;;;;;;5025986;28;20080;-85
2022/08/27 06:27:34;;;;;;;5.80;3.13;;;20.40;99.90;;;;;;5023711;28;20030;-85
2022/08/27 06:29:59;;;;;;;6.95;3.63;;;20.40;99.90;;;;;;5024478;28;20044;-84
2022/08/27 06:32:25;;;;;;;7.68;4.10;;;20.50;99.90;;;;;;5026077;28;20164;-83
2022/08/27 06:34:50;;;;;;;4.25;3.08;;;20.40;99.90;;;;;;5026361;28;20739;-83
2022/08/27 06:37:16;;;;;;;5.28;3.22;;;20.50;99.90;;;;;;5032629;28;20114;-83
2022/08/27 06:39:41;;;;;;;7.55;3.47;;;20.50;99.90;;;;;;5028240;28;20033;-85
2022/08/27 06:42:11;;;;;;;6.50;3.72;;;20.60;99.90;;;;;;5024646;28;20514;-84
2022/08/27 06:44:36;;;;;;;9.05;3.65;;;20.70;99.90;;;;;;5032202;28;20037;-84
2022/08/27 06:47:02;;;;;;;7.65;3.63;;;20.70;99.90;;;;;;5027639;28;20049;-84
2022/08/27 06:49:28;;;;;;;8.57;3.80;;;20.60;99.90;;;;;;5024728;28;20052;-84
2022/08/27 06:51:53;;;;;;;6.43;3.92;;;20.60;99.90;;;;;;5024325;28;20037;-83
2022/08/27 06:54:19;;;;;;;8.43;3.88;;;20.60;99.90;;;;;;5025748;28;20025;-85
2022/08/27 06:56:44;;;;;;;5.38;2.90;;;20.70;99.90;;;;;;5025641;28;20063;-79
2022/08/27 06:59:13;;;;;;;6.45;3.47;;;20.70;99.90;;;;;;5026148;28;20128;-82
2022/08/27 07:01:41;;;;;;;6.47;3.83;;;20.70;99.90;;;;;;5023264;28;20025;-82
2022/08/27 07:04:11;;;;;;;6.40;3.45;;;20.70;99.90;;;;;;5025496;28;20025;-83
2022/08/27 07:06:37;;;;;;;5.45;3.40;;;20.70;99.90;;;;;;5027636;28;20554;-83
2022/08/27 07:09:04;;;;;;;8.50;3.45;;;20.70;99.90;;;;;;5026290;28;20071;-83
2022/08/27 07:11:32;;;;;;;6.70;3.45;;;20.70;99.90;;;;;;5025068;28;20025;-85
2022/08/27 07:13:59;;;;;;;9.65;3.28;;;20.70;99.90;;;;;;5025204;28;20703;-85
2022/08/27 07:16:26;;;;;;;6.53;3.42;;;20.70;99.90;;;;;;5024015;28;20029;-85
2022/08/27 07:18:54;;;;;;;7.20;3.85;;;20.80;99.90;;;;;;5025675;28;20060;-86
2022/08/27 07:21:20;;;;;;;4.93;3.13;;;20.80;99.90;;;;;;5022768;28;20500;-86
2022/08/27 07:23:47;;;;;;;5.85;3.50;;;20.80;99.90;;;;;;5025363;28;20029;-86
2022/08/27 07:26:14;;;;;;;3.95;2.85;;;20.80;99.90;;;;;;5021455;28;20025;-86
2022/08/27 07:28:42;;;;;;;3.88;2.60;;;20.80;99.90;;;;;;5023724;28;20025;-85
2022/08/27 07:31:09;;;;;;;3.97;2.95;;;20.80;99.90;;;;;;5027108;28;20137;-82
2022/08/27 07:33:39;;;;;;;7.70;2.50;;;20.90;99.90;;;;;;5026461;28;20045;-83
2022/08/27 07:36:06;;;;;;;5.20;3.42;;;21.00;99.90;;;;;;5025429;28;20029;-86
2022/08/27 07:38:32;;;;;;;3.58;2.67;;;21.00;99.90;;;;;;5024365;28;20083;-86
2022/08/27 07:40:57;;;;;;;3.38;2.58;;;20.90;99.90;;;;;;5022098;28;20021;-85
2022/08/27 07:46:07;;;;;;;4.18;2.47;;;20.80;99.90;;;;;;5011933;28;20060;-86
2022/08/27 07:48:33;;;;;;;3.88;2.70;;;20.80;99.90;;;;;;5015820;28;20484;-84
2022/08/27 07:51:03;;;;;;;5.60;3.03;;;20.90;99.90;;;;;;5021694;28;20048;-84
2022/08/27 07:53:30;;;;;;;3.33;2.43;;;21.00;99.90;;;;;;5024095;28;20116;-82
2022/08/27 07:56:02;;;;;;;4.20;2.40;;;21.10;99.90;;;;;;5022259;28;20029;-83
2022/08/27 07:58:27;;;;;;;3.95;2.80;;;21.20;99.90;;;;;;5020907;28;20037;-85
2022/08/27 08:00:55;;;;;;;6.00;2.58;;;21.40;99.90;;;;;;5026729;28;20029;-84
2022/08/27 08:03:20;;;;;;;3.80;2.67;;;21.60;99.90;;;;;;5012128;28;20030;-80
2022/08/27 08:05:47;;;;;;;4.50;2.75;;;21.80;99.90;;;;;;5015297;28;20071;-82
2022/08/27 08:08:14;;;;;;;5.10;3.03;;;22.10;99.90;;;;;;5013022;28;20033;-83
2022/08/27 08:10:42;;;;;;;5.63;3.22;;;22.20;99.90;;;;;;5020604;28;20036;-80
2022/08/27 08:13:07;;;;;;;3.95;2.83;;;22.30;99.90;;;;;;5024370;28;20025;-86
2022/08/27 08:15:33;;;;;;;4.15;2.72;;;22.30;99.90;;;;;;5020841;28;20033;-82
2022/08/27 08:17:59;;;;;;;4.45;2.72;;;22.40;99.90;;;;;;5015935;28;20029;-88
2022/08/27 08:20:24;;;;;;;5.07;2.45;;;22.30;99.90;;;;;;5017226;28;20114;-92
2022/08/27 08:22:50;;;;;;;3.13;2.50;;;22.20;99.90;;;;;;5019094;28;20025;-83
2022/08/27 08:25:15;;;;;;;4.78;2.90;;;22.20;99.90;;;;;;5014455;28;20166;-85
2022/08/27 08:27:42;;;;;;;4.30;3.35;;;22.40;99.90;;;;;;5019499;28;20048;-83
2022/08/27 08:30:09;;;;;;;3.65;2.38;;;22.10;99.90;;;;;;5021997;28;20045;-84
2022/08/27 08:32:35;;;;;;;6.38;3.13;;;22.00;99.90;;;;;;5020475;28;20412;-85
2022/08/27 08:35:00;;;;;;;4.65;2.55;;;22.10;99.90;;;;;;5022720;28;20033;-85
2022/08/27 08:37:26;;;;;;;3.92;2.83;;;22.20;99.90;;;;;;5020581;28;20024;-84
2022/08/27 08:39:53;;;;;;;4.07;2.67;;;22.30;99.90;;;;;;5020207;28;20088;-84
2022/08/27 08:42:27;;;;;;;4.47;2.92;;;22.30;99.90;;;;;;5018964;28;20033;-84
2022/08/27 08:44:55;;;;;;;3.55;2.60;;;22.10;99.90;;;;;;5025421;28;20029;-84
2022/08/27 08:47:23;;;;;;;4.95;3.38;;;22.00;99.90;;;;;;5024245;28;20032;-85
2022/08/27 08:50:03;;;;;;;5.65;3.50;;;21.90;99.90;;;;;;5016007;28;20033;-84
2022/08/27 08:52:58;;;;;;;4.68;3.10;;;21.80;99.90;;;;;;5023730;28;20048;-84
2022/08/27 08:55:38;;;;;;;5.68;3.05;;;21.70;99.90;;;;;;5021307;28;20110;-82
2022/08/27 08:58:22;;;;;;;4.65;3.13;;;21.70;99.90;;;;;;5020336;28;20114;-84
2022/08/27 09:00:53;;;;;;;5.80;4.00;;;21.80;99.90;;;;;;5017560;28;20026;-81
2022/08/27 09:03:19;;;;;;;4.78;3.13;;;21.70;99.90;;;;;;5021164;28;20025;-80
2022/08/27 09:05:54;;;;;;;7.18;3.42;;;21.60;99.90;;;;;;5026139;28;20502;-81
2022/08/27 09:08:38;;;;;;;4.43;2.92;;;21.50;99.90;;;;;;5025402;28;20036;-80
2022/08/27 09:11:08;;;;;;;6.68;3.42;;;21.70;99.90;;;;;;5028263;28;20036;-80
2022/08/27 09:13:41;;;;;;;4.40;2.67;;;21.60;99.90;;;;;;5029119;28;20115;-80
2022/08/27 09:16:07;;;;;;;4.68;2.85;;;21.70;99.90;;;;;;5021837;28;20261;-80
2022/08/27 09:18:37;;;;;;;4.55;2.58;;;21.90;99.90;;;;;;5028655;28;20025;-81
2022/08/27 09:21:40;;;;;;;3.78;2.60;;;21.90;99.90;;;;;;5022099;28;20060;-81
2022/08/27 09:24:13;;;;;;;3.20;2.40;;;22.00;99.90;;;;;;5020705;28;20030;-82
2022/08/27 09:26:42;;;;;;;3.88;2.63;;;22.10;99.90;;;;;;5027202;28;20079;-82
2022/08/27 09:29:20;;;;;;;4.05;2.17;;;22.10;99.90;;;;;;5028292;28;20029;-82
2022/08/27 09:31:58;;;;;;;5.32;2.78;;;22.10;99.90;;;;;;5029323;28;20041;-82
2022/08/27 09:34:33;;;;;;;3.08;2.28;;;22.50;99.90;;;;;;5029054;28;20053;-81
2022/08/27 09:37:19;;;;;;;3.25;2.47;;;22.60;99.90;;;;;;5019289;28;20034;-80
2022/08/27 09:40:10;;;;;;;6.85;2.53;;;22.80;99.90;;;;;;5027753;28;20105;-82
2022/08/27 09:42:51;;;;;;;;;;;23.10;99.90;;;;;;5030478;28;20025;-83
2022/08/27 09:45:21;;;;;;;2.83;2.38;;;23.30;99.90;;;;;;5029567;28;19933;-82
2022/08/27 09:47:50;;;;;;;5.57;2.60;;;23.50;99.90;;;;;;5028396;28;20578;-82
2022/08/27 09:50:19;;;;;;;3.67;2.60;;;23.80;99.90;;;;;;5028550;28;20030;-80
2022/08/27 09:52:54;;;;;;;3.42;2.88;;;23.90;99.90;;;;;;5020273;28;20024;-81
2022/08/27 09:55:33;;;;;;;5.20;2.60;;;23.80;99.90;;;;;;5024451;28;20032;-83
2022/08/27 09:57:59;;;;;;;3.95;2.60;;;23.80;99.90;;;;;;5023795;28;20036;-84
2022/08/27 10:00:35;;;;;;;2.88;1.95;;;23.50;99.90;;;;;;5022041;28;20079;-81
2022/08/27 10:03:02;;;;;;;3.10;2.00;;;23.30;99.90;;;;;;5023585;28;20105;-89
2022/08/27 10:05:53;;;;;;;7.03;2.97;;;23.50;99.90;;;;;;5025999;28;20060;-82
2022/08/27 10:08:37;;;;;;;2.80;2.50;;;23.50;99.90;;;;;;5028043;28;20028;-87
2022/08/27 10:11:10;;;;;;;3.45;2.55;;;23.50;99.90;;;;;;5023963;28;20033;-80
2022/08/27 10:13:46;;;;;;;4.85;2.45;;;23.50;99.90;;;;;;5024468;28;20050;-80
2022/08/27 10:16:33;;;;;;;3.22;2.13;;;23.60;99.90;;;;;;5023054;28;20036;-79
2022/08/27 10:19:10;;;;;;;2.47;2.17;;;23.60;99.90;;;;;;5029282;28;20550;-84
2022/08/27 10:21:57;;;;;;;6.57;2.40;;;23.70;99.90;;;;;;5024663;28;20322;-78
2022/08/27 10:24:38;;;;;;;2.72;1.92;;;23.80;99.90;;;;;;5024908;28;20488;-78
2022/08/27 10:27:25;;;;;;;3.00;2.20;;;24.00;99.90;;;;;;5022254;28;20044;-83
2022/08/27 10:30:12;;;;;;;5.32;2.40;;;24.30;99.90;;;;;;5025216;28;20116;-86
2022/08/27 10:32:54;;;;;;;2.78;2.47;;;24.70;99.90;;;;;;5026394;28;20065;-84
2022/08/27 10:35:24;;;;;;;3.53;2.35;;;24.80;99.90;;;;;;5018363;28;20025;-84
2022/08/27 10:38:12;;;;;;;2.55;1.95;;;24.50;99.90;;;;;;5025805;28;20025;-81
2022/08/27 10:40:53;;;;;;;3.13;2.10;;;24.30;99.90;;;;;;5028423;28;20057;-83
2022/08/27 10:43:59;;;;;;;4.13;2.00;;;24.30;99.90;;;;;;5025102;28;20120;-83
2022/08/27 10:46:55;;;;;;;2.63;1.98;;;24.30;99.90;;;;;;5022521;28;20100;-86
2022/08/27 10:49:39;;;;;;;2.08;1.88;;;24.10;99.90;;;;;;5024580;28;20499;-81
2022/08/27 10:52:17;;;;;;;2.35;1.70;;;23.80;99.90;;;;;;5028604;28;20276;-85
2022/08/27 10:55:20;;;;;;;1.88;1.67;;;23.60;99.90;;;;;;5031786;28;20025;-85
2022/08/27 10:58:03;;;;;;;3.20;2.38;;;23.30;99.90;;;;;;5027588;28;20091;-84
2022/08/27 11:00:47;;;;;;;2.22;1.98;;;23.00;99.90;;;;;;5028288;28;20057;-85
2022/08/27 11:03:23;;;;;;;1.83;1.73;;;22.80;99.90;;;;;;5029853;28;20021;-87
2022/08/27 11:05:49;;;;;;;2.40;2.17;;;22.70;99.90;;;;;;5022725;28;20484;-85
2022/08/27 11:08:26;;;;;;;2.50;2.30;;;22.60;99.90;;;;;;5024128;28;20037;-82
2022/08/27 11:11:00;;;;;;;3.72;2.38;;;22.40;99.90;;;;;;5010555;28;20037;-84
2022/08/27 11:13:37;;;;;;;2.85;2.33;;;22.20;99.90;;;;;;5022900;28;20033;-83
2022/08/27 11:16:19;;;;;;;2.35;2.10;;;22.20;99.90;;;;;;5025484;28;20033;-82
2022/08/27 11:18:56;;;;;;;2.65;2.20;;;22.10;99.90;;;;;;5026207;28;20029;-84
2022/08/27 11:21:40;;;;;;;4.75;2.40;;;22.00;99.90;;;;;;5026840;28;20037;-89
2022/08/27 11:24:27;;;;;;;3.00;2.35;;;22.00;99.90;;;;;;5021587;28;20859;-88
2022/08/27 11:27:01;;;;;;;4.78;2.25;;;22.00;99.90;;;;;;5020926;28;20034;-87
2022/08/27 11:29:32;;;;;;;3.28;2.28;;;22.10;99.90;;;;;;5025547;28;20053;-87
2022/08/27 11:32:24;;;;;;;2.97;2.45;;;22.10;99.90;;;;;;5025254;28;20510;-88
2022/08/27 11:35:24;;;;;;;3.13;2.30;;;22.10;99.90;;;;;;5027765;28;20708;-90
2022/08/27 11:38:11;;;;;;;2.83;2.00;;;22.00;99.90;;;;;;4996403;28;20039;-91
2022/08/27 11:40:49;;;;;;;3.35;2.38;;;22.40;99.90;;;;;;5022073;28;20120;-85
2022/08/27 11:43:39;;;;;;;6.20;3.05;;;22.70;99.90;;;;;;5020559;28;20056;-83
2022/08/27 11:46:07;;;;;;;3.03;2.50;;;23.00;99.90;;;;;;5015945;28;20076;-85
2022/08/27 11:48:42;;;;;;;2.30;1.98;;;23.30;99.90;;;;;;5024621;28;20113;-81
2022/08/27 11:51:13;;;;;;;3.10;2.50;;;23.50;99.90;;;;;;5027302;28;20476;-91
2022/08/27 11:54:00;;;;;;;3.17;2.40;;;23.40;99.90;;;;;;5026277;28;20034;-80
2022/08/27 11:56:34;;;;;;;3.65;2.50;;;23.40;99.90;;;;;;5023730;28;20518;-87
2022/08/27 11:59:22;;;;;;;2.55;2.20;;;23.50;99.90;;;;;;5019282;28;20676;-88
2022/08/27 12:01:54;;;;;;;3.13;2.60;;;23.20;99.90;;;;;;5029185;28;20514;-95
2022/08/27 12:04:33;;;;;;;4.55;2.47;;;23.30;99.90;;;;;;5005050;28;20029;-83
2022/08/27 12:07:06;;;;;;;3.55;2.60;;;23.40;99.90;;;;;;5017204;28;20115;-81
2022/08/27 12:10:02;;;;;;;3.50;2.20;;;23.50;99.90;;;;;;5020160;28;20044;-80
2022/08/27 12:13:03;;;;;;;2.85;2.20;;;23.70;99.90;;;;;;5023182;28;20029;-80
2022/08/27 12:15:44;;;;;;;3.17;2.13;;;24.10;99.90;;;;;;5027945;28;20052;-80
2022/08/27 12:18:35;;;;;;;3.53;2.10;;;24.30;99.90;;;;;;5024481;28;20087;-80
2022/08/27 12:21:18;;;;;;;2.50;2.13;;;25.30;99.90;;;;;;5024625;28;20037;-80
2022/08/27 12:24:15;;;;;;;4.70;3.20;;;26.50;99.90;;;;;;5025620;28;20071;-80
2022/08/27 12:26:54;;;;;;;2.65;2.30;;;27.20;99.90;;;;;;5021466;28;20084;-80
2022/08/27 12:29:54;;;;;;;3.15;2.40;;;27.10;99.90;;;;;;5026012;28;20026;-80
2022/08/27 12:32:34;;;;;;;2.92;2.20;;;27.10;99.90;;;;;;5025082;28;20375;-80
2022/08/27 12:35:20;;;;;;;2.85;2.05;;;26.60;99.90;;;;;;5008486;28;20448;-80
2022/08/27 12:37:53;;;;;;;2.25;2.00;;;25.40;99.90;;;;;;5024891;28;20045;-79
2022/08/27 12:40:28;;;;;;;2.40;1.92;;;24.80;99.90;;;;;;5025574;28;20111;-80
2022/08/27 12:43:26;;;;;;;1.92;1.60;;;25.00;99.90;;;;;;5024638;28;20420;-80
2022/08/27 12:45:59;;;;;;;2.58;1.75;;;25.60;99.90;;;;;;4984662;28;20117;-79
2022/08/27 12:48:32;;;;;;;1.85;1.42;;;27.00;99.90;;;;;;5027683;28;20496;-80
2022/08/27 12:51:23;;;;;;;4.78;2.47;;;28.10;99.90;;;;;;5032956;28;20079;-78
2022/08/27 12:54:18;;;;;;;2.07;1.47;;;28.30;99.90;;;;;;5034608;28;20365;-79
2022/08/27 12:57:11;;;;;;;2.55;1.42;;;30.50;99.70;;;;;;5010969;28;20026;-79
2022/08/27 13:00:04;;;;;;;2.92;1.75;;;34.40;80.30;;;;;;5031122;28;20037;-78
2022/08/27 13:02:39;;;;;;;1.80;1.50;;;32.70;81.40;;;;;;5029558;28;20033;-79
2022/08/27 13:05:06;;;;;;;1.98;1.80;;;31.40;88.10;;;;;;5029968;28;20025;-80
2022/08/27 13:07:38;;;;;;;1.55;1.42;;;30.80;88.60;;;;;;5026513;28;20029;-78
2022/08/27 13:10:16;;;;;;;2.55;1.60;;;34.30;77.30;;;;;;5030923;28;20686;-78
2022/08/27 13:12:43;;;;;;;1.50;1.40;;;38.20;63.90;;;;;;5030262;28;20030;-78